createdAt,value
2023-07-17T00:00:06.675Z,13.1
2023-07-17T00:05:06.744Z,12.2
2023-07-17T00:10:07.051Z,13.4
2023-07-17T00:15:06.252Z,16.3
2023-07-17T00:20:06.558Z,13.2
2023-07-17T00:25:06.865Z,12.3
2023-07-17T00:30:06.970Z,14.1
2023-07-17T00:35:07.169Z,14.3
2023-07-17T00:40:06.397Z,13.2
2023-07-17T00:45:06.465Z,11.6
2023-07-17T00:50:06.577Z,13.1
2023-07-17T00:55:06.726Z,13.4
2023-07-17T01:00:07.019Z,12.6
2023-07-17T01:05:06.659Z,12.1
2023-07-17T01:10:07.033Z,12
2023-07-17T01:15:06.969Z,13.4
2023-07-17T01:20:07.187Z,11
2023-07-17T01:25:06.300Z,14.7
2023-07-17T01:30:06.508Z,13.2
2023-07-17T01:35:06.748Z,12.4
2023-07-17T01:40:06.992Z,17.3
2023-07-17T01:45:07.070Z,20.2
2023-07-17T01:50:06.301Z,14.2
2023-07-17T01:55:06.325Z,14.5
2023-07-17T02:00:06.530Z,21.6
2023-07-17T02:05:06.537Z,24.1
2023-07-17T02:10:07.208Z,20.9
2023-07-17T02:15:07.165Z,13.4
2023-07-17T02:20:06.409Z,13.8
2023-07-17T02:25:06.618Z,13.8
2023-07-17T02:30:06.858Z,12.3
2023-07-17T02:35:07.000Z,13.4
2023-07-17T02:40:06.327Z,12.5
2023-07-17T02:45:06.599Z,11.4
2023-07-17T02:50:06.739Z,11.9
2023-07-17T02:55:06.869Z,15
2023-07-17T03:00:07.280Z,13.5
2023-07-17T03:05:06.786Z,14
2023-07-17T03:10:07.005Z,13.1
2023-07-17T03:15:07.101Z,11.9
2023-07-17T03:20:06.335Z,12.5
2023-07-17T03:25:06.614Z,13.3
2023-07-17T03:30:06.851Z,11.7
2023-07-17T03:35:07.093Z,12.7
2023-07-17T03:40:06.317Z,11.7
2023-07-17T03:45:06.481Z,14.2
2023-07-17T03:50:06.707Z,19
2023-07-17T03:55:06.672Z,13.8
2023-07-17T04:00:06.982Z,14.7
2023-07-17T04:05:06.335Z,15.5
2023-07-17T04:10:06.875Z,15.5
2023-07-17T04:15:07.001Z,15.2
2023-07-17T04:20:06.301Z,15.1
2023-07-17T04:25:06.422Z,15.2
2023-07-17T04:30:06.539Z,13.2
2023-07-17T04:35:06.778Z,12.7
2023-07-17T04:40:06.777Z,12.8
2023-07-17T04:45:06.849Z,14.2
2023-07-17T04:50:07.050Z,13.2
2023-07-17T04:55:06.202Z,13.6
2023-07-17T05:00:06.614Z,13.2
2023-07-17T05:05:06.460Z,13.3
2023-07-17T05:10:06.948Z,14.5
2023-07-17T05:15:07.092Z,14.9
2023-07-17T05:20:06.259Z,14.9
2023-07-17T05:25:06.701Z,14
2023-07-17T05:30:06.828Z,12.3
2023-07-17T05:35:07.147Z,12.7
2023-07-17T05:40:06.366Z,13.6
2023-07-17T05:45:06.670Z,11.8
2023-07-17T05:50:06.880Z,13
2023-07-17T05:55:07.020Z,11.4
2023-07-17T06:00:06.400Z,11.7
2023-07-17T06:05:06.227Z,12.5
2023-07-17T06:10:06.870Z,12.9
2023-07-17T06:15:07.082Z,15.1
2023-07-17T06:20:06.362Z,11.8
2023-07-17T06:25:06.500Z,11.2
2023-07-17T06:30:06.640Z,12.9
2023-07-17T06:35:06.802Z,13.8
2023-07-17T06:40:07.096Z,13.6
2023-07-17T06:45:06.286Z,15.6
2023-07-17T06:50:06.339Z,11.4
2023-07-17T06:55:06.445Z,16.8
2023-07-17T07:00:06.654Z,13.2
2023-07-17T07:05:06.273Z,12.2
2023-07-17T07:10:06.620Z,13.2
2023-07-17T07:15:06.722Z,12.4
2023-07-17T07:20:07.024Z,11.6
2023-07-17T07:25:07.127Z,11.4
2023-07-17T07:30:06.430Z,11.7
2023-07-17T07:35:06.458Z,10.8
2023-07-17T07:40:06.850Z,11.2
2023-07-17T07:45:06.810Z,12
2023-07-17T07:50:07.026Z,11.2
2023-07-17T07:55:06.970Z,12.8
2023-07-17T08:00:07.307Z,11.1
2023-07-17T08:05:06.897Z,11.4
2023-07-17T08:10:07.172Z,12.5
2023-07-17T08:15:06.265Z,10.2
2023-07-17T08:20:06.544Z,11.3
2023-07-17T08:25:06.962Z,12.4
2023-07-17T08:30:06.328Z,10.3
2023-07-17T08:35:06.611Z,11.9
2023-07-17T08:40:06.977Z,11.9
2023-07-17T08:45:06.607Z,11.3
2023-07-17T08:50:06.659Z,13
2023-07-17T08:55:06.839Z,12.5
2023-07-17T09:00:07.113Z,10.9
2023-07-17T09:05:06.620Z,10.2
2023-07-17T09:10:06.954Z,11.1
2023-07-17T09:15:06.994Z,13.2
2023-07-17T09:20:06.246Z,12.4
2023-07-17T09:25:06.418Z,13.7
2023-07-17T09:30:06.599Z,14.1
2023-07-17T09:35:06.918Z,12.7
2023-07-17T09:40:06.275Z,13.7
2023-07-17T09:45:06.519Z,18.6
2023-07-17T09:50:06.692Z,12.1
2023-07-17T09:55:06.741Z,13.4
2023-07-17T10:00:06.920Z,11.9
2023-07-17T10:05:06.477Z,12.7
2023-07-17T10:10:06.875Z,18.3
2023-07-17T10:15:06.970Z,12.5
2023-07-17T10:20:06.348Z,11.5
2023-07-17T10:25:06.461Z,10.3
2023-07-17T10:30:06.539Z,9.1
2023-07-17T10:35:06.769Z,13.5
2023-07-17T10:40:06.367Z,10.7
2023-07-17T10:45:06.531Z,9.4
2023-07-17T10:50:06.840Z,9.9
2023-07-17T10:55:07.140Z,9.8
2023-07-17T11:00:06.380Z,9.2
2023-07-17T11:05:07.227Z,11
2023-07-17T11:10:06.886Z,10.8
2023-07-17T11:15:06.322Z,9.7
2023-07-17T11:20:06.334Z,10.5
2023-07-17T11:25:06.423Z,10.4
2023-07-17T11:30:06.927Z,10.4
2023-07-17T11:35:07.013Z,10.2
2023-07-17T11:40:06.858Z,9.6
2023-07-17T11:45:07.132Z,9.8
2023-07-17T11:50:06.293Z,9.3
2023-07-17T11:55:06.461Z,10.1
2023-07-17T12:00:07.009Z,9
2023-07-17T12:05:06.395Z,7.8
2023-07-17T12:10:06.706Z,9.4
2023-07-17T12:15:07.005Z,9.9
2023-07-17T12:20:06.279Z,10.6
2023-07-17T12:25:06.514Z,9.6
2023-07-17T12:30:06.698Z,8.6
2023-07-17T12:35:06.867Z,9.1
2023-07-17T12:40:07.146Z,8.1
2023-07-17T12:45:06.407Z,10.6
2023-07-17T12:50:06.809Z,7.9
2023-07-17T12:55:07.057Z,7.7
2023-07-17T13:00:07.288Z,9.6
2023-07-17T13:05:06.946Z,8.5
2023-07-17T13:10:07.168Z,13.6
2023-07-17T13:15:06.424Z,9.1
2023-07-17T13:20:06.567Z,8.5
2023-07-17T13:25:06.640Z,7.7
2023-07-17T13:30:06.835Z,7
2023-07-17T13:35:06.960Z,7.3
2023-07-17T13:40:07.227Z,8.1
2023-07-17T13:45:06.357Z,8
2023-07-17T13:50:06.661Z,7.8
2023-07-17T13:55:06.794Z,7.4
2023-07-17T14:00:07.308Z,6.4
2023-07-17T14:05:06.889Z,7.4
2023-07-17T14:10:07.189Z,7.3
2023-07-17T14:15:06.397Z,6
2023-07-17T14:20:06.565Z,7.1
2023-07-17T14:25:06.818Z,8.7
2023-07-17T14:30:06.982Z,7.4
2023-07-17T14:35:07.184Z,9.3
2023-07-17T14:40:06.446Z,9.2
2023-07-17T14:45:06.646Z,8.9
2023-07-17T14:50:06.848Z,8
2023-07-17T14:55:07.170Z,8.4
2023-07-17T15:00:06.689Z,7.8
2023-07-17T15:05:07.126Z,9.5
2023-07-17T15:10:06.514Z,9.9
2023-07-17T15:15:06.728Z,10
2023-07-17T15:20:06.911Z,11.4
2023-07-17T15:25:07.219Z,10.5
2023-07-17T15:30:06.459Z,8.4
2023-07-17T15:35:06.698Z,8
2023-07-17T15:40:06.951Z,7.9
2023-07-17T15:45:06.247Z,8.5
2023-07-17T15:50:06.460Z,8.7
2023-07-17T15:55:06.499Z,7
2023-07-17T16:00:06.991Z,9.9
2023-07-17T16:05:06.409Z,7.6
2023-07-17T16:10:06.843Z,9.9
2023-07-17T16:15:07.046Z,12.7
2023-07-17T16:20:07.146Z,10.1
2023-07-17T16:25:06.317Z,9.3
2023-07-17T16:30:06.585Z,8.6
2023-07-17T16:35:06.632Z,9.5
2023-07-17T16:40:06.862Z,8.9
2023-07-17T16:45:06.975Z,8.4
2023-07-17T16:50:07.202Z,8.5
2023-07-17T16:55:07.176Z,8.2
2023-07-17T17:00:06.499Z,9
2023-07-17T17:05:07.045Z,11.8
2023-07-17T17:10:06.369Z,9.4
2023-07-17T17:15:06.607Z,8
2023-07-17T17:20:06.760Z,9.8
2023-07-17T17:25:06.978Z,9.6
2023-07-17T17:30:06.267Z,10.5
2023-07-17T17:35:06.529Z,9.1
2023-07-17T17:40:06.739Z,10.9
2023-07-17T17:45:06.861Z,10.6
2023-07-17T17:50:07.135Z,13.7
2023-07-17T17:55:06.465Z,11
2023-07-17T18:00:06.783Z,11.1
2023-07-17T18:05:07.239Z,12.2
2023-07-17T18:10:06.577Z,12.9
2023-07-17T18:15:06.856Z,11.5
2023-07-17T18:20:07.048Z,15.1
2023-07-17T18:25:06.224Z,11.8
2023-07-17T18:30:06.490Z,11.2
2023-07-17T18:35:06.756Z,12.1
2023-07-17T18:40:07.077Z,11.2
2023-07-17T18:45:06.226Z,11.9
2023-07-17T18:50:06.393Z,12.7
2023-07-17T18:55:06.551Z,13.2
2023-07-17T19:00:06.881Z,11.5
2023-07-17T19:05:06.330Z,12.8
2023-07-17T19:10:06.592Z,16.1
2023-07-17T19:15:06.799Z,19.7
2023-07-17T19:20:07.015Z,12.3
2023-07-17T19:25:07.160Z,14.8
2023-07-17T19:30:06.319Z,14
2023-07-17T19:35:07.226Z,13.4
2023-07-17T19:40:06.464Z,10.7
2023-07-17T19:45:06.801Z,17
2023-07-17T19:50:06.945Z,13.6
2023-07-17T19:55:06.925Z,12.5
2023-07-17T20:00:07.159Z,13.3
2023-07-17T20:05:06.738Z,13.2
2023-07-17T20:10:06.923Z,23.9
2023-07-17T20:15:07.201Z,13.9
2023-07-17T20:20:06.388Z,14.1
2023-07-17T20:25:06.632Z,16.3
2023-07-17T20:30:06.735Z,15.4
2023-07-17T20:35:07.029Z,14.1
2023-07-17T20:40:06.425Z,20.2
2023-07-17T20:45:06.500Z,14.2
2023-07-17T20:50:06.778Z,17.4
2023-07-17T20:55:07.115Z,16.2
2023-07-17T21:00:06.378Z,18.4
2023-07-17T21:05:07.014Z,14.7
2023-07-17T21:10:06.858Z,13.4
2023-07-17T21:15:07.157Z,14.6
2023-07-17T21:20:06.271Z,14.8
2023-07-17T21:25:06.472Z,14.1
2023-07-17T21:30:06.636Z,18.8
2023-07-17T21:35:06.838Z,15.7
2023-07-17T21:40:07.205Z,14.4
2023-07-17T21:45:06.498Z,12.9
2023-07-17T21:50:06.605Z,15.4
2023-07-17T21:55:06.871Z,14.4
2023-07-17T22:00:07.116Z,14.5
2023-07-17T22:05:06.516Z,15.4
2023-07-17T22:10:06.737Z,12.6
2023-07-17T22:15:06.878Z,13.2
2023-07-17T22:20:07.210Z,14.4
2023-07-17T22:25:06.275Z,14
2023-07-17T22:30:06.636Z,15.9
2023-07-17T22:35:06.805Z,14.1
2023-07-17T22:40:07.008Z,13.7
2023-07-17T22:45:07.263Z,13.6
2023-07-17T22:50:06.342Z,15.4
2023-07-17T22:55:06.635Z,14.1
2023-07-17T23:00:08.305Z,14.4
2023-07-17T23:05:08.459Z,16.5
2023-07-17T23:10:06.600Z,15.4
2023-07-17T23:15:06.763Z,14.3
2023-07-17T23:20:07.100Z,13.9
2023-07-17T23:25:06.289Z,13.3
2023-07-17T23:30:06.433Z,13.5
2023-07-17T23:35:06.898Z,14.2
2023-07-17T23:40:07.249Z,13.8
2023-07-17T23:45:06.311Z,16.9
2023-07-17T23:50:06.524Z,12.9
2023-07-17T23:55:06.587Z,14.1
